Time;durP1;ratioP1;P1;durP2;ratioP2;P2;SDS_P1;SDS_P2;PMS_P1;PMS_P2;Temp;Humidity;BMP_temperature;BMP_pressure;BME280_temperature;BME280_humidity;BME280_pressure;Samples;Min_cycle;Max_cycle;Signal;HPM_P1;HPM_P2
2021/07/01 00:00:35;;;;;;;0.05;0.05;;;16.30;99.90;;;;;;5048440;28;20216;-72
2021/07/01 00:03:03;;;;;;;0.00;0.00;;;16.30;99.90;;;;;;5049662;28;20657;-72
2021/07/01 00:05:29;;;;;;;0.00;0.00;;;16.30;99.90;;;;;;5049575;28;20166;-72
2021/07/01 00:07:55;;;;;;;0.10;0.10;;;16.20;99.90;;;;;;5049463;28;20546;-72
2021/07/01 00:10:24;;;;;;;0.30;0.25;;;16.20;99.90;;;;;;5049582;28;20161;-72
2021/07/01 00:12:51;;;;;;;0.00;0.00;;;16.10;99.90;;;;;;5049478;28;20161;-72
2021/07/01 00:15:22;;;;;;;0.00;0.00;;;16.20;99.90;;;;;;5048287;28;20161;-72
2021/07/01 00:17:48;;;;;;;0.00;0.00;;;16.30;99.90;;;;;;5049441;28;20256;-71
2021/07/01 00:20:14;;;;;;;0.00;0.00;;;16.40;99.90;;;;;;5049444;28;20153;-72
2021/07/01 00:22:41;;;;;;;0.00;0.00;;;16.30;99.90;;;;;;5049414;28;20177;-73
2021/07/01 00:25:10;;;;;;;0.00;0.00;;;16.40;99.90;;;;;;5049283;28;20167;-72
2021/07/01 00:27:36;;;;;;;0.28;0.28;;;16.40;99.90;;;;;;5049382;28;20157;-73
2021/07/01 00:30:04;;;;;;;0.10;0.10;;;16.60;99.90;;;;;;5047639;28;20204;-70
2021/07/01 00:32:30;;;;;;;0.30;0.30;;;16.70;99.90;;;;;;5049139;28;20611;-70
2021/07/01 00:34:56;;;;;;;0.00;0.00;;;16.70;99.90;;;;;;5047205;28;20165;-71
2021/07/01 00:37:22;;;;;;;0.00;0.00;;;16.70;99.90;;;;;;5049100;28;20168;-71
2021/07/01 00:39:48;;;;;;;0.00;0.00;;;16.60;99.90;;;;;;5049021;28;20201;-70
2021/07/01 00:42:14;;;;;;;0.00;0.00;;;16.60;99.90;;;;;;5041126;28;20186;-71
2021/07/01 00:44:40;;;;;;;0.75;0.65;;;16.50;99.90;;;;;;5029168;28;20227;-71
2021/07/01 00:47:06;;;;;;;0.08;0.08;;;16.40;99.90;;;;;;5068629;28;20583;-72
2021/07/01 00:49:34;;;;;;;0.00;0.00;;;16.30;99.90;;;;;;5068716;28;20236;-70
2021/07/01 00:52:00;;;;;;;0.00;0.00;;;16.20;99.90;;;;;;5050827;28;20175;-70
2021/07/01 00:54:26;;;;;;;0.35;0.35;;;16.20;99.90;;;;;;5083464;28;20167;-71
2021/07/01 00:56:51;;;;;;;0.28;0.20;;;16.20;99.90;;;;;;5070830;28;20180;-71
2021/07/01 00:59:18;;;;;;;0.00;0.00;;;16.30;99.90;;;;;;5088492;28;20221;-70
2021/07/01 01:01:44;;;;;;;0.00;0.00;;;16.20;99.90;;;;;;5088928;28;20171;-71
2021/07/01 01:04:10;;;;;;;0.00;0.00;;;16.20;99.90;;;;;;5087114;28;20203;-70
2021/07/01 01:06:35;;;;;;;0.00;0.00;;;16.10;99.90;;;;;;5070591;28;20183;-70
2021/07/01 01:09:05;;;;;;;0.00;0.00;;;16.10;99.90;;;;;;5088716;28;20191;-70
2021/07/01 01:11:32;;;;;;;0.00;0.00;;;16.00;99.90;;;;;;5088387;28;20148;-71
2021/07/01 01:13:58;;;;;;;0.20;0.20;;;16.00;99.90;;;;;;5070618;28;20617;-70
2021/07/01 01:16:24;;;;;;;0.00;0.00;;;16.00;99.90;;;;;;5088697;28;20160;-72
2021/07/01 01:18:51;;;;;;;0.00;0.00;;;16.00;99.90;;;;;;5070619;28;20202;-70
2021/07/01 01:21:22;;;;;;;0.00;0.00;;;16.00;99.90;;;;;;5088767;28;20242;-71
2021/07/01 01:23:48;;;;;;;0.00;0.00;;;16.00;99.90;;;;;;5088611;28;20364;-70
2021/07/01 01:26:14;;;;;;;0.00;0.00;;;15.90;99.90;;;;;;5088745;28;20163;-71
2021/07/01 01:28:40;;;;;;;0.80;0.47;;;15.90;99.90;;;;;;5088472;28;20195;-70
2021/07/01 01:31:07;;;;;;;0.00;0.00;;;15.70;99.90;;;;;;5070523;28;20180;-70
2021/07/01 01:33:33;;;;;;;0.10;0.10;;;15.40;99.90;;;;;;5088463;28;20203;-71
2021/07/01 01:35:59;;;;;;;0.00;0.00;;;15.40;99.90;;;;;;5070484;28;20176;-70
2021/07/01 01:38:25;;;;;;;0.00;0.00;;;15.40;99.90;;;;;;5088652;28;20171;-71
2021/07/01 01:40:51;;;;;;;0.30;0.30;;;15.60;99.90;;;;;;5088077;28;20165;-70
2021/07/01 01:43:20;;;;;;;1.90;0.17;;;15.50;99.90;;;;;;5071687;28;20227;-71
2021/07/01 01:45:46;;;;;;;0.10;0.10;;;15.50;99.90;;;;;;5069884;28;20227;-71
2021/07/01 01:48:14;;;;;;;0.10;0.10;;;15.50;99.90;;;;;;5072082;28;20179;-71
2021/07/01 01:50:41;;;;;;;0.00;0.00;;;15.60;99.90;;;;;;5054280;28;20165;-72
2021/07/01 01:53:08;;;;;;;0.00;0.00;;;16.00;99.90;;;;;;5075733;28;20272;-71
2021/07/01 01:55:35;;;;;;;0.10;0.10;;;16.20;99.90;;;;;;5092163;28;20152;-72
2021/07/01 01:58:01;;;;;;;0.10;0.10;;;16.20;99.90;;;;;;5091861;28;20187;-72
2021/07/01 02:00:27;;;;;;;0.00;0.00;;;16.00;99.90;;;;;;5074074;28;20217;-71
2021/07/01 02:02:54;;;;;;;0.20;0.20;;;15.70;99.90;;;;;;5073810;28;20195;-71
2021/07/01 02:05:20;;;;;;;0.08;0.08;;;15.70;99.90;;;;;;5091925;28;20176;-71
2021/07/01 02:07:45;;;;;;;0.32;0.32;;;15.70;99.90;;;;;;5091911;28;20265;-71
2021/07/01 02:10:21;;;;;;;0.00;0.00;;;15.30;99.90;;;;;;5073648;28;20613;-71
2021/07/01 02:12:47;;;;;;;0.00;0.00;;;15.20;99.90;;;;;;5073616;28;20191;-71
2021/07/01 02:15:16;;;;;;;0.10;0.10;;;15.30;99.90;;;;;;5091927;28;20152;-72
2021/07/01 02:17:43;;;;;;;0.00;0.00;;;15.30;99.90;;;;;;5073640;28;20175;-72
2021/07/01 02:20:15;;;;;;;0.10;0.10;;;15.30;99.90;;;;;;5091659;28;20223;-71
2021/07/01 02:22:42;;;;;;;0.05;0.05;;;15.10;99.90;;;;;;5073508;28;20179;-71
2021/07/01 02:25:09;;;;;;;0.00;0.00;;;15.20;99.90;;;;;;5091531;28;20160;-71
2021/07/01 02:27:36;;;;;;;0.10;0.10;;;15.30;99.90;;;;;;5091604;28;20156;-71
2021/07/01 02:30:05;;;;;;;0.03;0.03;;;15.30;99.90;;;;;;5091354;28;20188;-71
2021/07/01 02:32:30;;;;;;;0.03;0.03;;;15.40;99.90;;;;;;5073184;28;20247;-71
2021/07/01 02:34:56;;;;;;;0.00;0.00;;;15.40;99.90;;;;;;5091173;28;20164;-71
2021/07/01 02:37:24;;;;;;;0.00;0.00;;;15.40;99.90;;;;;;5090334;28;20156;-71
2021/07/01 02:39:50;;;;;;;0.10;0.10;;;15.50;99.90;;;;;;5091127;28;20689;-71
2021/07/01 02:42:16;;;;;;;0.00;0.00;;;15.30;99.90;;;;;;5090724;28;20192;-70
2021/07/01 02:44:42;;;;;;;0.20;0.20;;;15.30;99.90;;;;;;5090484;28;20255;-71
2021/07/01 02:47:08;;;;;;;0.00;0.00;;;15.00;99.90;;;;;;5050735;28;20670;-72
2021/07/01 02:49:34;;;;;;;0.00;0.00;;;14.90;99.90;;;;;;5050938;28;20193;-72
2021/07/01 02:52:00;;;;;;;0.00;0.00;;;15.00;99.90;;;;;;5050980;28;20158;-73
2021/07/01 02:54:26;;;;;;;0.10;0.10;;;15.10;99.90;;;;;;5050644;28;20216;-71
2021/07/01 02:56:52;;;;;;;0.00;0.00;;;15.30;99.90;;;;;;5050190;28;20169;-72
2021/07/01 02:59:20;;;;;;;0.65;0.65;;;15.10;99.90;;;;;;5050637;28;20165;-71
2021/07/01 03:01:50;;;;;;;0.10;0.10;;;15.10;99.90;;;;;;5049343;28;20169;-71
2021/07/01 03:04:17;;;;;;;0.20;0.20;;;14.80;99.90;;;;;;5050654;28;20196;-71
2021/07/01 03:06:43;;;;;;;0.20;0.20;;;14.70;99.90;;;;;;5050423;28;20169;-71
2021/07/01 03:09:10;;;;;;;0.20;0.20;;;14.60;99.90;;;;;;5050372;28;20189;-71
2021/07/01 03:11:38;;;;;;;0.13;0.13;;;14.60;99.90;;;;;;5049011;28;20161;-71
2021/07/01 03:14:05;;;;;;;0.20;0.20;;;14.70;99.90;;;;;;5049177;28;20320;-71
2021/07/01 03:16:32;;;;;;;0.13;0.10;;;14.60;99.90;;;;;;5050699;28;20225;-71
2021/07/01 03:18:59;;;;;;;0.08;0.08;;;14.40;99.90;;;;;;5049336;28;20204;-71
2021/07/01 03:21:25;;;;;;;0.05;0.05;;;14.30;99.90;;;;;;5050707;28;20165;-71
2021/07/01 03:23:51;;;;;;;0.45;0.45;;;14.50;99.90;;;;;;5049255;28;20219;-71
2021/07/01 03:26:18;;;;;;;0.03;0.03;;;14.60;99.90;;;;;;5050642;28;20158;-71
2021/07/01 03:28:45;;;;;;;0.00;0.00;;;14.40;99.90;;;;;;5050438;28;20204;-71
2021/07/01 03:31:11;;;;;;;0.00;0.00;;;14.40;99.90;;;;;;5050566;28;20245;-72
2021/07/01 03:33:38;;;;;;;0.52;0.52;;;14.50;99.90;;;;;;5048972;28;20186;-72
2021/07/01 03:36:05;;;;;;;12.73;0.65;;;14.80;99.90;;;;;;5049025;28;20177;-71
2021/07/01 03:38:31;;;;;;;0.13;0.13;;;14.60;99.90;;;;;;5050349;28;20165;-71
2021/07/01 03:40:57;;;;;;;0.55;0.55;;;14.60;99.90;;;;;;5050204;28;20158;-71
2021/07/01 03:43:24;;;;;;;1.25;1.08;;;14.70;99.90;;;;;;5050103;28;20255;-71
2021/07/01 03:45:50;;;;;;;0.50;0.50;;;14.80;99.90;;;;;;5068700;28;20271;-71
2021/07/01 03:48:17;;;;;;;0.10;0.10;;;15.00;99.90;;;;;;5089563;28;20199;-71
2021/07/01 03:50:43;;;;;;;0.35;0.35;;;15.00;99.90;;;;;;5090012;28;20152;-71
2021/07/01 03:53:09;;;;;;;0.10;0.10;;;15.10;99.90;;;;;;5089900;28;20200;-72
2021/07/01 03:55:35;;;;;;;0.00;0.00;;;15.40;99.90;;;;;;5071829;28;20671;-71
2021/07/01 03:58:01;;;;;;;0.45;0.45;;;16.00;99.90;;;;;;5089814;28;20156;-71
2021/07/01 04:00:27;;;;;;;0.05;0.05;;;16.70;99.90;;;;;;5089550;28;20202;-71
2021/07/01 04:02:53;;;;;;;12.27;0.70;;;17.10;99.90;;;;;;5089573;28;20198;-72
2021/07/01 04:05:19;;;;;;;8.48;0.90;;;17.40;99.90;;;;;;5089731;28;20152;-71
2021/07/01 04:07:45;;;;;;;0.80;0.70;;;17.60;99.90;;;;;;5071674;28;20172;-72
2021/07/01 04:10:14;;;;;;;0.10;0.10;;;17.30;99.90;;;;;;5088595;28;20183;-71
2021/07/01 04:12:41;;;;;;;0.00;0.00;;;16.80;99.90;;;;;;5089429;28;20148;-72
2021/07/01 04:15:07;;;;;;;0.00;0.00;;;16.80;99.90;;;;;;5089482;28;20160;-72
2021/07/01 04:17:33;;;;;;;0.20;0.20;;;17.00;99.90;;;;;;5089540;28;20160;-72
2021/07/01 04:19:59;;;;;;;0.10;0.10;;;16.60;99.90;;;;;;5089430;28;20557;-72
2021/07/01 04:22:26;;;;;;;0.10;0.10;;;16.20;99.90;;;;;;5089390;28;20616;-72
2021/07/01 04:24:52;;;;;;;0.20;0.20;;;16.30;99.90;;;;;;5071421;28;20186;-72
2021/07/01 04:27:19;;;;;;;0.17;0.17;;;16.90;99.90;;;;;;5089150;28;20172;-72
2021/07/01 04:29:45;;;;;;;0.43;0.40;;;17.50;99.90;;;;;;5089253;28;20195;-72
2021/07/01 04:32:11;;;;;;;1.10;0.63;;;17.80;99.90;;;;;;5088861;28;20617;-72
2021/07/01 04:34:38;;;;;;;0.10;0.10;;;18.20;99.90;;;;;;5071111;28;20222;-72
2021/07/01 04:37:05;;;;;;;0.08;0.08;;;18.10;99.90;;;;;;5089234;28;20156;-72
2021/07/01 04:39:31;;;;;;;0.32;0.28;;;18.40;99.90;;;;;;5088886;28;20159;-72
2021/07/01 04:41:58;;;;;;;0.30;0.10;;;18.20;99.90;;;;;;5089148;28;20183;-72
2021/07/01 04:44:24;;;;;;;0.00;0.00;;;18.30;99.90;;;;;;5070912;28;20195;-72
2021/07/01 04:46:50;;;;;;;2.20;1.35;;;18.30;99.90;;;;;;5087166;28;20219;-72
2021/07/01 04:49:16;;;;;;;0.40;0.40;;;19.00;99.90;;;;;;5088906;28;20555;-72
2021/07/01 04:51:42;;;;;;;0.00;0.00;;;19.80;99.90;;;;;;5070591;28;20176;-72
2021/07/01 04:54:09;;;;;;;0.55;0.40;;;20.20;99.90;;;;;;5089038;28;20245;-72
2021/07/01 04:56:44;;;;;;;0.10;0.10;;;20.90;99.90;;;;;;5071054;28;20199;-71
2021/07/01 04:59:15;;;;;;;2.10;0.65;;;21.10;99.90;;;;;;5068570;28;20176;-72
2021/07/01 05:01:42;;;;;;;0.10;0.10;;;20.70;99.90;;;;;;5068448;28;20164;-71
2021/07/01 05:04:09;;;;;;;0.05;0.05;;;20.40;99.90;;;;;;5050710;28;20193;-71
2021/07/01 05:06:41;;;;;;;0.25;0.25;;;20.40;99.90;;;;;;5068821;28;20156;-71
2021/07/01 05:09:09;;;;;;;0.22;0.22;;;20.60;99.90;;;;;;5068347;28;20184;-71
2021/07/01 05:11:36;;;;;;;0.10;0.10;;;20.40;99.90;;;;;;5068574;28;20157;-71
2021/07/01 05:14:03;;;;;;;0.00;0.00;;;21.20;99.90;;;;;;5071727;28;20225;-71
2021/07/01 05:16:30;;;;;;;0.15;0.15;;;21.70;99.90;;;;;;5070286;28;20209;-71
2021/07/01 05:18:57;;;;;;;0.30;0.30;;;22.50;99.90;;;;;;5070503;28;20159;-72
2021/07/01 05:21:23;;;;;;;0.70;0.70;;;22.70;99.90;;;;;;5091767;28;20182;-72
2021/07/01 05:23:49;;;;;;;8.77;1.35;;;22.40;99.90;;;;;;5074450;28;20589;-73
2021/07/01 05:26:16;;;;;;;0.70;0.52;;;21.70;99.90;;;;;;5092546;28;20201;-72
2021/07/01 05:28:42;;;;;;;0.03;0.03;;;22.10;99.90;;;;;;5092547;28;20191;-73
2021/07/01 05:31:08;;;;;;;0.40;0.40;;;22.60;99.90;;;;;;5074446;28;20190;-72
2021/07/01 05:33:34;;;;;;;2.58;0.38;;;23.30;99.90;;;;;;5092050;28;20187;-73
2021/07/01 05:36:00;;;;;;;0.28;0.25;;;23.60;99.90;;;;;;5092422;28;20159;-73
2021/07/01 05:38:26;;;;;;;0.10;0.10;;;24.50;99.90;;;;;;5073512;28;20231;-72
2021/07/01 05:40:52;;;;;;;0.47;0.40;;;24.80;99.90;;;;;;5092131;28;20160;-72
2021/07/01 05:43:18;;;;;;;0.32;0.32;;;25.60;99.90;;;;;;5092343;28;20199;-71
2021/07/01 05:45:44;;;;;;;0.03;0.03;;;25.60;99.90;;;;;;5091939;28;20237;-71
2021/07/01 05:48:11;;;;;;;0.20;0.20;;;25.20;99.90;;;;;;5091773;28;20205;-73
2021/07/01 05:50:50;;;;;;;0.47;0.47;;;24.90;99.90;;;;;;5074079;28;20175;-72
2021/07/01 05:53:28;;;;;;;0.20;0.10;;;24.50;99.90;;;;;;5091977;28;20187;-72
2021/07/01 05:55:55;;;;;;;0.10;0.10;;;24.60;99.90;;;;;;5074017;28;20171;-73
2021/07/01 05:58:21;;;;;;;0.00;0.00;;;24.50;99.90;;;;;;5077218;28;20172;-72
2021/07/01 06:00:47;;;;;;;0.10;0.10;;;25.20;99.90;;;;;;5071914;28;20157;-72
2021/07/01 06:03:13;;;;;;;0.08;0.08;;;25.80;99.90;;;;;;5070511;28;20180;-73
2021/07/01 06:05:44;;;;;;;0.00;0.00;;;24.40;99.90;;;;;;5069870;28;20171;-73
2021/07/01 06:08:12;;;;;;;0.55;0.20;;;23.90;99.90;;;;;;5069790;28;20171;-73
2021/07/01 06:10:40;;;;;;;0.10;0.10;;;23.50;99.90;;;;;;5051451;28;20170;-72
2021/07/01 06:13:08;;;;;;;0.05;0.05;;;23.60;99.90;;;;;;5069137;28;20636;-72
2021/07/01 06:15:34;;;;;;;0.10;0.10;;;24.30;99.90;;;;;;5069421;28;20157;-73
2021/07/01 06:18:01;;;;;;;0.00;0.00;;;24.80;99.90;;;;;;5083467;28;20187;-73
2021/07/01 06:20:27;;;;;;;0.00;0.00;;;24.30;99.90;;;;;;5073475;28;20623;-72
2021/07/01 06:22:54;;;;;;;0.00;0.00;;;25.00;99.90;;;;;;5091685;28;20195;-72
2021/07/01 06:25:21;;;;;;;0.40;0.30;;;26.10;99.90;;;;;;5073561;28;20213;-72
2021/07/01 06:27:48;;;;;;;0.00;0.00;;;24.30;99.90;;;;;;5091218;28;20152;-72
2021/07/01 06:30:20;;;;;;;0.00;0.00;;;24.50;99.90;;;;;;5091359;28;20184;-73
2021/07/01 06:32:47;;;;;;;0.10;0.10;;;23.70;99.90;;;;;;5090533;28;20670;-72
2021/07/01 06:35:15;;;;;;;0.00;0.00;;;23.10;99.90;;;;;;5073199;28;20178;-72
2021/07/01 06:37:42;;;;;;;0.00;0.00;;;23.20;99.90;;;;;;5073505;28;20179;-73
2021/07/01 06:40:13;;;;;;;0.10;0.10;;;23.70;99.90;;;;;;5073306;28;20175;-72
2021/07/01 06:43:10;;;;;;;0.00;0.00;;;24.40;99.90;;;;;;5091503;28;20174;-72
2021/07/01 06:45:36;;;;;;;0.10;0.10;;;24.30;99.90;;;;;;5009531;28;20229;-70
2021/07/01 06:48:03;;;;;;;0.43;0.28;;;22.70;99.90;;;;;;5009336;28;20185;-70
2021/07/01 06:50:30;;;;;;;0.00;0.00;;;22.50;99.90;;;;;;5008598;28;20272;-70
2021/07/01 06:52:58;;;;;;;1.17;0.38;;;22.90;99.90;;;;;;5008941;28;20162;-70
2021/07/01 06:55:25;;;;;;;0.00;0.00;;;22.40;99.90;;;;;;5009222;28;20178;-70
2021/07/01 06:57:52;;;;;;;0.00;0.00;;;22.10;99.90;;;;;;5019289;28;20186;-70
2021/07/01 07:00:19;;;;;;;0.00;0.00;;;22.80;99.90;;;;;;5008199;28;20178;-69
2021/07/01 07:02:47;;;;;;;0.00;0.00;;;23.30;99.90;;;;;;5007430;28;20186;-70
2021/07/01 07:05:14;;;;;;;0.20;0.10;;;23.10;99.90;;;;;;5007587;28;20170;-69
2021/07/01 07:07:42;;;;;;;0.00;0.00;;;23.20;99.90;;;;;;5008652;28;20170;-68
2021/07/01 07:10:10;;;;;;;0.00;0.00;;;23.00;99.90;;;;;;5008382;28;20383;-68
2021/07/01 07:12:46;;;;;;;0.00;0.00;;;22.80;99.90;;;;;;4992460;28;20185;-68
2021/07/01 07:15:29;;;;;;;0.00;0.00;;;22.80;99.90;;;;;;5009162;28;20182;-70
2021/07/01 07:18:05;;;;;;;0.08;0.08;;;23.10;99.90;;;;;;4992387;28;20193;-70
2021/07/01 07:20:34;;;;;;;0.00;0.00;;;22.90;99.90;;;;;;5009051;28;20173;-69
2021/07/01 07:23:04;;;;;;;0.00;0.00;;;22.90;99.90;;;;;;5075337;28;20183;-69
2021/07/01 07:25:31;;;;;;;0.03;0.03;;;23.30;99.90;;;;;;5078828;28;20168;-69
2021/07/01 07:28:08;;;;;;;0.00;0.00;;;23.00;99.90;;;;;;5078601;28;20192;-69
2021/07/01 07:30:34;;;;;;;0.00;0.00;;;23.20;99.90;;;;;;5079147;28;20167;-69
2021/07/01 07:33:06;;;;;;;0.05;0.05;;;23.30;99.90;;;;;;5078906;28;20215;-68
2021/07/01 07:35:33;;;;;;;0.00;0.00;;;23.30;99.90;;;;;;5079031;28;20166;-68
2021/07/01 07:37:59;;;;;;;0.00;0.00;;;23.40;99.90;;;;;;5080505;28;20274;-68
2021/07/01 07:40:28;;;;;;;0.03;0.03;;;23.80;99.90;;;;;;5079232;28;20172;-68
2021/07/01 07:42:54;;;;;;;0.00;0.00;;;23.80;99.90;;;;;;5060834;28;20168;-68
2021/07/01 07:45:20;;;;;;;0.00;0.00;;;24.10;99.90;;;;;;5060475;28;20211;-67
2021/07/01 07:47:46;;;;;;;0.10;0.10;;;25.00;99.90;;;;;;5081302;28;20192;-69
2021/07/01 07:50:14;;;;;;;0.00;0.00;;;25.90;99.90;;;;;;5078795;28;20195;-66
2021/07/01 07:52:49;;;;;;;0.00;0.00;;;25.40;99.90;;;;;;5080579;28;20167;-69
2021/07/01 07:55:17;;;;;;;0.10;0.10;;;24.60;99.90;;;;;;5080440;28;20225;-68
2021/07/01 07:57:46;;;;;;;0.20;0.20;;;24.30;99.90;;;;;;5081440;28;20243;-68
2021/07/01 08:00:12;;;;;;;0.00;0.00;;;24.30;99.90;;;;;;5079655;28;20554;-68
2021/07/01 08:02:54;;;;;;;0.15;0.15;;;24.50;99.90;;;;;;5078504;28;20168;-68
2021/07/01 08:05:25;;;;;;;0.10;0.10;;;23.60;99.90;;;;;;5078565;28;20169;-68
2021/07/01 08:07:51;;;;;;;0.90;0.52;;;24.20;99.90;;;;;;5059114;28;20198;-68
2021/07/01 08:10:19;;;;;;;0.00;0.00;;;25.00;99.90;;;;;;5078276;28;20192;-68
2021/07/01 08:12:50;;;;;;;0.10;0.10;;;24.20;99.90;;;;;;5077047;28;20167;-68
2021/07/01 08:15:19;;;;;;;0.10;0.10;;;24.00;99.90;;;;;;5078394;28;20166;-69
2021/07/01 08:17:50;;;;;;;0.00;0.00;;;24.30;99.90;;;;;;5079120;28;20202;-68
2021/07/01 08:20:18;;;;;;;0.00;0.00;;;24.80;99.90;;;;;;5078322;28;20182;-68
2021/07/01 08:22:46;;;;;;;0.00;0.00;;;24.70;99.90;;;;;;5061182;28;20176;-69
2021/07/01 08:25:13;;;;;;;0.00;0.00;;;24.90;99.90;;;;;;5077372;28;20164;-68
2021/07/01 08:27:41;;;;;;;0.00;0.00;;;25.20;99.90;;;;;;5077420;28;20267;-68
2021/07/01 08:30:09;;;;;;;0.00;0.00;;;25.40;99.90;;;;;;5078874;28;20187;-69
2021/07/01 08:32:38;;;;;;;0.57;0.10;;;25.70;99.90;;;;;;5077880;28;20161;-69
2021/07/01 08:35:05;;;;;;;0.00;0.00;;;24.70;99.90;;;;;;5059053;28;20195;-68
2021/07/01 08:37:33;;;;;;;0.00;0.00;;;25.40;99.90;;;;;;5076735;28;20203;-68
2021/07/01 08:40:01;;;;;;;0.05;0.05;;;25.70;99.90;;;;;;5077587;28;20171;-68
2021/07/01 08:42:36;;;;;;;0.00;0.00;;;25.30;99.90;;;;;;5078642;28;20227;-69
2021/07/01 08:45:11;;;;;;;0.10;0.10;;;26.20;99.90;;;;;;5078413;28;20172;-68
2021/07/01 08:47:40;;;;;;;0.10;0.10;;;25.40;99.90;;;;;;5059531;28;20220;-69
2021/07/01 08:50:17;;;;;;;0.10;0.10;;;25.30;99.90;;;;;;5068523;28;20204;-67
2021/07/01 08:53:00;;;;;;;0.00;0.00;;;27.40;99.90;;;;;;5050963;28;20164;-69
2021/07/01 08:55:28;;;;;;;2.80;1.10;;;26.30;99.90;;;;;;5075858;28;20179;-69
2021/07/01 08:57:56;;;;;;;0.00;0.00;;;25.70;99.90;;;;;;5061473;28;20308;-68
2021/07/01 09:00:25;;;;;;;0.40;0.40;;;24.30;99.90;;;;;;5078312;28;20227;-69
2021/07/01 09:03:08;;;;;;;0.03;0.03;;;23.80;99.90;;;;;;5076810;28;20224;-69
2021/07/01 09:05:39;;;;;;;0.10;0.10;;;23.70;99.90;;;;;;5077274;28;20625;-68
2021/07/01 09:08:10;;;;;;;0.00;0.00;;;23.70;99.90;;;;;;5058453;28;20195;-69
2021/07/01 09:10:37;;;;;;;0.00;0.00;;;24.10;99.90;;;;;;5077340;28;20534;-69
2021/07/01 09:13:08;;;;;;;0.10;0.10;;;24.10;99.90;;;;;;5076833;28;20193;-69
2021/07/01 09:15:36;;;;;;;0.10;0.10;;;23.80;99.90;;;;;;5077145;28;20160;-68
2021/07/01 09:18:03;;;;;;;0.00;0.00;;;23.80;99.90;;;;;;5079290;28;20215;-68
2021/07/01 09:20:36;;;;;;;0.10;0.10;;;24.30;99.90;;;;;;5078600;28;20208;-68
2021/07/01 09:23:04;;;;;;;0.25;0.25;;;23.90;99.90;;;;;;5078060;28;20178;-68
2021/07/01 09:25:31;;;;;;;0.15;0.13;;;24.10;99.90;;;;;;5076458;28;20156;-69
2021/07/01 09:27:58;;;;;;;0.00;0.00;;;24.00;99.90;;;;;;5077475;28;20198;-68
2021/07/01 09:30:27;;;;;;;0.00;0.00;;;23.20;99.90;;;;;;5080999;28;20221;-68
2021/07/01 09:33:00;;;;;;;0.00;0.00;;;22.80;99.90;;;;;;5088368;28;20160;-68
2021/07/01 09:35:29;;;;;;;0.00;0.00;;;22.60;99.90;;;;;;5083311;28;20167;-68
2021/07/01 09:38:03;;;;;;;0.15;0.15;;;22.10;99.90;;;;;;5087426;28;20196;-69
2021/07/01 09:40:31;;;;;;;0.00;0.00;;;22.30;99.90;;;;;;5087964;28;20163;-68
2021/07/01 09:43:01;;;;;;;0.00;0.00;;;22.30;99.90;;;;;;5088692;28;20267;-68
2021/07/01 09:45:28;;;;;;;0.00;0.00;;;22.30;99.90;;;;;;5087759;28;20215;-68
2021/07/01 09:48:05;;;;;;;0.00;0.00;;;22.40;99.90;;;;;;5068393;28;20266;-70
2021/07/01 09:50:45;;;;;;;0.35;0.35;;;22.20;99.90;;;;;;5066314;28;20253;-68
2021/07/01 09:53:31;;;;;;;0.00;0.00;;;22.10;99.90;;;;;;5068048;28;20192;-68
2021/07/01 09:56:03;;;;;;;0.00;0.00;;;21.80;99.90;;;;;;5067873;28;20173;-68
2021/07/01 09:58:31;;;;;;;0.20;0.20;;;21.50;99.90;;;;;;5083398;28;20164;-69
2021/07/01 10:00:58;;;;;;;0.17;0.17;;;21.50;99.90;;;;;;5088023;28;20219;-69
2021/07/01 10:03:24;;;;;;;0.00;0.00;;;21.50;99.90;;;;;;5088124;28;20204;-69
2021/07/01 10:05:50;;;;;;;0.00;0.00;;;21.40;99.90;;;;;;5088584;28;20182;-69
2021/07/01 10:08:16;;;;;;;0.00;0.00;;;21.40;99.90;;;;;;5090615;28;20156;-69
2021/07/01 10:10:50;;;;;;;0.00;0.00;;;21.50;99.90;;;;;;5091890;28;20160;-69
2021/07/01 10:13:18;;;;;;;0.00;0.00;;;21.40;99.90;;;;;;5092073;28;20225;-69
2021/07/01 10:15:49;;;;;;;0.10;0.10;;;21.50;99.90;;;;;;5091846;28;20153;-69
2021/07/01 10:18:18;;;;;;;0.10;0.10;;;21.80;99.90;;;;;;5073330;28;20180;-69
2021/07/01 10:20:45;;;;;;;0.00;0.00;;;21.40;99.90;;;;;;5073596;28;20165;-68
2021/07/01 10:23:28;;;;;;;0.30;0.30;;;21.30;99.90;;;;;;5091573;28;20210;-68
2021/07/01 10:26:16;;;;;;;0.00;0.00;;;21.40;99.90;;;;;;5091705;28;20171;-69
2021/07/01 10:29:00;;;;;;;0.10;0.10;;;21.50;99.90;;;;;;5091543;28;20213;-69
2021/07/01 10:31:45;;;;;;;0.20;0.20;;;21.30;99.90;;;;;;5091672;28;20206;-68
2021/07/01 10:34:11;;;;;;;0.00;0.00;;;21.00;99.90;;;;;;5091490;28;20183;-68
2021/07/01 10:36:37;;;;;;;0.00;0.00;;;21.10;99.90;;;;;;5091334;28;20219;-69
2021/07/01 10:39:03;;;;;;;0.10;0.10;;;21.00;99.90;;;;;;5091561;28;20160;-68
2021/07/01 10:41:35;;;;;;;0.00;0.00;;;21.00;99.90;;;;;;5091374;28;20202;-69
2021/07/01 10:44:02;;;;;;;0.35;0.20;;;20.80;99.90;;;;;;5090960;28;20198;-69
2021/07/01 10:46:37;;;;;;;0.00;0.00;;;20.70;99.90;;;;;;5090785;28;20226;-69
2021/07/01 10:49:03;;;;;;;0.00;0.00;;;20.60;99.90;;;;;;5091376;28;20190;-69
2021/07/01 10:51:30;;;;;;;0.08;0.08;;;20.60;99.90;;;;;;5072842;28;20629;-69
2021/07/01 10:54:10;;;;;;;0.00;0.00;;;20.70;99.90;;;;;;5090970;28;20184;-69
2021/07/01 10:56:41;;;;;;;0.00;0.00;;;20.70;99.90;;;;;;5090624;28;20152;-69
2021/07/01 10:59:08;;;;;;;0.40;0.30;;;20.60;99.90;;;;;;5070909;28;20176;-68
2021/07/01 11:01:37;;;;;;;0.10;0.10;;;20.60;99.90;;;;;;5053227;28;20171;-68
2021/07/01 11:04:13;;;;;;;0.00;0.00;;;20.60;99.90;;;;;;5070574;28;20188;-67
2021/07/01 11:06:44;;;;;;;0.00;0.00;;;20.80;99.90;;;;;;5071939;28;20195;-67
2021/07/01 11:09:13;;;;;;;0.10;0.10;;;20.80;99.90;;;;;;5067004;28;20189;-67
2021/07/01 11:11:41;;;;;;;0.10;0.10;;;20.80;99.90;;;;;;5084608;28;20228;-68
2021/07/01 11:14:08;;;;;;;0.00;0.00;;;20.80;99.90;;;;;;5089493;28;20195;-67
2021/07/01 11:16:36;;;;;;;0.13;0.13;;;20.80;99.90;;;;;;5088413;28;20248;-68
2021/07/01 11:19:02;;;;;;;0.10;0.10;;;20.70;99.90;;;;;;5068940;28;20680;-67
2021/07/01 11:21:29;;;;;;;0.10;0.10;;;20.70;99.90;;;;;;5069597;28;20165;-67
2021/07/01 11:24:15;;;;;;;0.35;0.35;;;20.40;99.90;;;;;;5069382;28;20660;-67
2021/07/01 11:26:49;;;;;;;0.10;0.10;;;19.90;99.90;;;;;;5069351;28;20212;-67
2021/07/01 11:29:16;;;;;;;0.10;0.10;;;19.40;99.90;;;;;;5069240;28;20558;-67
2021/07/01 11:31:47;;;;;;;0.20;0.20;;;19.00;99.90;;;;;;5070227;28;20157;-67
2021/07/01 11:34:20;;;;;;;1.05;0.15;;;18.50;99.90;;;;;;5069911;28;20194;-67
2021/07/01 11:36:54;;;;;;;0.40;0.40;;;17.90;99.90;;;;;;5070111;28;20267;-67
2021/07/01 11:39:28;;;;;;;0.10;0.10;;;17.60;99.90;;;;;;5069981;28;20172;-67
2021/07/01 11:41:56;;;;;;;0.00;0.00;;;17.20;99.90;;;;;;5070170;28;20156;-67
2021/07/01 11:44:23;;;;;;;0.10;0.10;;;17.20;99.90;;;;;;5069985;28;20200;-67
2021/07/01 11:46:50;;;;;;;0.00;0.00;;;17.10;99.90;;;;;;5069647;28;20291;-67
2021/07/01 11:49:18;;;;;;;0.05;0.05;;;17.10;99.90;;;;;;5069529;28;20679;-67
2021/07/01 11:51:44;;;;;;;0.05;0.05;;;17.10;99.90;;;;;;5069452;28;20244;-67
2021/07/01 11:54:11;;;;;;;0.00;0.00;;;17.00;99.90;;;;;;5069339;28;20199;-67
2021/07/01 11:59:25;;;;;;;0.00;0.00;;;17.00;99.90;;;;;;5089809;28;20167;-67
2021/07/01 12:01:51;;;;;;;0.00;0.00;;;16.80;99.90;;;;;;5088964;28;20156;-67
2021/07/01 12:04:18;;;;;;;0.10;0.10;;;16.80;99.90;;;;;;5069702;28;20203;-67
2021/07/01 12:06:59;;;;;;;0.00;0.00;;;16.70;99.90;;;;;;5075966;28;20176;-68
2021/07/01 12:09:25;;;;;;;0.20;0.20;;;16.60;99.90;;;;;;5068975;28;20188;-68
2021/07/01 12:12:03;;;;;;;0.10;0.10;;;16.40;99.90;;;;;;5070485;28;20165;-68
2021/07/01 12:14:30;;;;;;;0.00;0.00;;;16.40;99.90;;;;;;5077952;28;20204;-69
2021/07/01 12:16:56;;;;;;;0.10;0.10;;;16.40;99.90;;;;;;5080961;28;20236;-69
2021/07/01 12:19:45;;;;;;;0.00;0.00;;;16.60;99.90;;;;;;5079695;28;20179;-69
2021/07/01 12:22:46;;;;;;;0.35;0.35;;;16.70;99.90;;;;;;5060920;28;20180;-69
2021/07/01 12:25:31;;;;;;;0.00;0.00;;;16.90;99.90;;;;;;5079088;28;20176;-69
2021/07/01 12:28:10;;;;;;;0.10;0.10;;;16.90;99.90;;;;;;5068269;28;20184;-69
2021/07/01 12:30:58;;;;;;;0.10;0.10;;;17.10;99.90;;;;;;5088491;28;20190;-69
2021/07/01 12:33:58;;;;;;;0.17;0.10;;;17.40;99.90;;;;;;5088990;28;20203;-68
2021/07/01 12:36:30;;;;;;;0.00;0.00;;;17.40;99.90;;;;;;5089045;28;20156;-67
2021/07/01 12:39:05;;;;;;;0.82;0.35;;;17.40;99.90;;;;;;5086768;28;20180;-67
2021/07/01 12:41:43;;;;;;;0.10;0.10;;;17.30;99.90;;;;;;5068877;28;20153;-68
2021/07/01 12:44:21;;;;;;;0.30;0.30;;;17.20;99.90;;;;;;5068717;28;20223;-68
2021/07/01 12:46:47;;;;;;;0.35;0.35;;;17.30;99.90;;;;;;5078899;28;20215;-68
2021/07/01 12:49:21;;;;;;;0.00;0.00;;;17.50;99.90;;;;;;5070504;28;20226;-68
2021/07/01 12:52:06;;;;;;;0.10;0.10;;;17.70;99.90;;;;;;5070843;28;20162;-67
2021/07/01 12:54:32;;;;;;;0.10;0.10;;;17.60;99.90;;;;;;5088751;28;20191;-68
2021/07/01 12:56:59;;;;;;;0.10;0.10;;;17.40;99.90;;;;;;5085611;28;20160;-68
2021/07/01 12:59:34;;;;;;;0.00;0.00;;;17.30;99.90;;;;;;5068789;28;20252;-67